Flight Track Log - Related Links

Times and Time Zones

All times are in EDT time to prevent confusion due to time zone crossing. See the DAL1118 flight status page for this flight to view local times or setup timezone preferences in your user account.

Time Position Orientation Groundspeed Altitude Reporting Facility
EDT Latitude Longitude Course Direction KTS MPH feet Rate Location/Type
02:49PM 44.8833 -93.3167 196° South 207 238 3,400  Level Minneapolis TRACON
02:50PM 44.8583 -93.3958 246° West 276 318 5,700 2,400 Climbing Minneapolis Center
02:51PM 44.7878 -93.4400 204° Southwest 282 325 8,400 2,468 Climbing Minneapolis Center
02:52PM 44.4294 -93.3905 198° South  Level Estimated
02:52PM 44.7117 -93.4814 201° Southwest 296 341 10,800  Level Minneapolis Center
02:53PM 44.3163 -93.4323 200° South  Level Estimated
02:53PM 44.6028 -93.5358 200° South 357 411 12,700  Level Minneapolis Center
02:54PM 44.2031 -93.4739 200° South  Level Estimated
02:54PM 44.5047 -93.5844 199° South 372 428 15,100  Level Minneapolis Center
02:55PM 44.0899 -93.5153 196° South  Level Estimated
02:55PM 44.4058 -93.6364 201° Southwest 377 434 17,300  Level Minneapolis Center
02:57PM 44.3119 -93.7136 210° Southwest 388 447 19,500 1,790 Climbing Minneapolis Center
02:58PM 44.2175 -93.7894 210° Southwest 391 450 21,000 1,694 Climbing Minneapolis Center
02:59PM 44.0975 -93.8858 210° Southwest 415 478 23,000 1,548 Climbing Minneapolis Center
03:00PM 43.9944 -93.9686 210° Southwest 424 488 24,200 1,306 Climbing Minneapolis Center
03:01PM 43.8894 -94.0519 210° Southwest 430 495 25,700 1,306 Climbing Minneapolis Center
03:02PM 43.7828 -94.1364 210° Southwest 440 506 26,900 1,113 Climbing Minneapolis Center
03:03PM 43.6742 -94.2217 210° Southwest 445 512 28,000 1,008 Climbing Minneapolis Center
03:04PM 43.5703 -94.3206 215° Southwest 452 520 29,000 960 Climbing Minneapolis Center
03:05PM 43.4475 -94.4381 215° Southwest 452 520 30,000 532 Climbing Minneapolis Center
03:06PM 43.3467 -94.5358 215° Southwest 449 517 30,100 726 Climbing Minneapolis Center
03:07PM 43.2436 -94.6328 214° Southwest 446 513 31,500 968 Climbing Minneapolis Center
03:08PM 43.1428 -94.7275 214° Southwest 442 509 32,100 242 Climbing Minneapolis Center
03:09PM 43.0444 -94.8225 215° Southwest 440 506 32,000 -387 Descending Minneapolis Center
03:10PM 42.9444 -94.9147 214° Southwest 438 504 31,300 -919 Descending Minneapolis Center
03:11PM 42.8253 -95.0286 215° Southwest 437 503 30,100 -629 Descending Minneapolis Center
03:12PM 42.7231 -95.1225 214° Southwest 440 506 30,000 -48 Descending Minneapolis Center
03:13PM 42.6236 -95.2178 215° Southwest 440 506 30,000  Level Minneapolis Center
03:14PM 42.5228 -95.3081 213° Southwest 439 505 30,000  Level Minneapolis Center
03:15PM 42.4233 -95.4014 215° Southwest 439 505 30,000  Level Minneapolis Center
03:16PM 42.3300 -95.5083 220° Southwest 438 504 30,000  Level Minneapolis Center
03:17PM 42.2219 -95.6417 222° Southwest 439 505 30,000  Level Minneapolis Center
03:18PM 42.1283 -95.7481 220° Southwest 440 506 30,000  Level Minneapolis Center
03:19PM 42.0356 -95.8542 220° Southwest 440 506 30,000  Level Minneapolis Center
03:20PM 41.9436 -95.9592 220° Southwest 440 506 30,000  Level Minneapolis Center
03:21PM 41.8506 -96.0656 220° Southwest 440 506 30,000  Level Minneapolis Center
03:22PM 41.7603 -96.1689 221° Southwest 434 499 30,000  Level Minneapolis Center
03:23PM 41.6517 -96.2908 220° Southwest 432 497 30,000  Level Minneapolis Center
03:24PM 41.5628 -96.3911 220° Southwest 430 495 30,000  Level Minneapolis Center
03:25PM 41.4728 -96.4922 220° Southwest 427 491 30,000  Level Minneapolis Center
03:27PM 41.3819 -96.5922 220° Southwest 427 491 30,000  Level Minneapolis Center
03:28PM 41.2917 -96.6928 220° Southwest 427 491 30,000  Level Minneapolis Center
03:29PM 41.1828 -96.8117 219° Southwest 426 490 30,000  Level Minneapolis Center
03:30PM 41.0931 -96.9108 220° Southwest 424 488 30,000  Level Minneapolis Center
03:31PM 41.0033 -97.0094 220° Southwest 423 487 30,000  Level Minneapolis Center
03:32PM 40.9128 -97.1086 220° Southwest 423 487 30,000  Level Minneapolis Center
03:33PM 40.8233 -97.2067 220° Southwest 423 487 30,000  Level Minneapolis Center
03:34PM 40.7322 -97.3033 219° Southwest 423 487 30,000  Level Minneapolis Center
03:36PM 40.4667 -97.3328 185° South 446 513 30,000  Level Minneapolis Center
03:37PM 40.3425 -97.3269 178° South 446 513 30,000  Level Minneapolis Center
03:38PM 40.2206 -97.3200 178° South 444 511 30,000  Level Minneapolis Center
03:39PM 40.0967 -97.3150 178° South 444 511 30,000  Level Minneapolis Center
03:40PM 39.9739 -97.3089 178° South 444 511 30,000  Level Minneapolis Center
03:41PM 39.8272 -97.3011 178° South 443 510 30,000 146 Level Minneapolis Center
03:42PM 39.7044 -97.2967 178° South 443 510 30,300 871 Climbing Minneapolis Center
03:43PM 39.5803 -97.2897 178° South 443 510 31,800 823 Climbing Minneapolis Center
03:44PM 39.4592 -97.2831 178° South 443 510 32,000 97 Climbing Minneapolis Center
03:45PM 39.3408 -97.2792 179° South 436 502 32,000  Level Minneapolis Center
03:46PM 39.2208 -97.2750 178° South 434 499 32,000  Level Minneapolis Center
03:47PM 39.0758 -97.2650 177° South 434 499 32,000  Level Minneapolis Center
03:48PM 38.9450 -97.2608 179° South 432 497 32,000 557 Level Kansas City Center
03:50PM 38.8008 -97.2536 178° South 432 497 33,300 960 Climbing Kansas City Center
03:51PM 38.6817 -97.2486 178° South 432 497 34,000 339 Climbing Kansas City Center
03:52PM 38.5625 -97.2425 178° South 428 493 34,000  Level Kansas City Center
03:53PM 38.4431 -97.2364 178° South 428 493 34,000  Level Kansas City Center
03:54PM 38.3231 -97.2303 178° South 429 494 34,000  Level Kansas City Center
03:55PM 38.2022 -97.2244 178° South 429 494 34,000  Level Kansas City Center
03:56PM 38.0822 -97.1969 170° South 438 504 34,000  Level Kansas City Center
03:57PM 37.9369 -97.1500 166° South 444 511 34,000  Level Kansas City Center
03:58PM 37.8156 -97.1094 165° South 445 512 34,000  Level Kansas City Center
03:59PM 37.6933 -97.0733 167° South 446 513 34,000  Level Kansas City Center
04:00PM 37.5717 -97.0369 167° South 446 513 34,000 97 Level Kansas City Center
04:01PM 37.4514 -97.0064 169° South 442 509 34,200 480 Climbing Kansas City Center
04:02PM 37.3311 -96.9817 171° South 440 506 35,000 528 Climbing Kansas City Center
04:03PM 37.2103 -96.9656 174° South 438 504 35,300 484 Climbing Kansas City Center
04:04PM 37.0678 -96.9753 183° South 429 494 36,000 339 Climbing Kansas City Center
04:05PM 36.9481 -96.9839 183° South 429 494 36,000  Level Kansas City Center
04:06PM 36.8206 -96.9925 183° South 420 483 36,000  Level Kansas City Center
04:07PM 36.7031 -97.0000 183° South 418 481 36,000  Level Kansas City Center
04:08PM 36.5778 -97.0081 183° South 429 494 36,000  Level Kansas City Center
04:09PM 36.4578 -97.0175 184° South 429 494 36,000  Level Kansas City Center
04:10PM 36.3375 -97.0258 183° South 430 495 36,000  Level Kansas City Center
04:11PM 36.2186 -97.0333 183° South 430 495 36,000  Level Kansas City Center
04:12PM 36.0967 -97.0431 184° South 432 497 36,000  Level Kansas City Center
04:13PM 35.9522 -97.0525 183° South 432 497 36,000  Level Kansas City Center
04:14PM 35.8311 -97.0603 183° South 433 498 36,000  Level Kansas City Center
04:15PM 35.7092 -97.0661 182° South 433 498 36,000  Level Kansas City Center
04:17PM 35.5617 -97.0733 182° South 437 503 36,000  Level Fort Worth Center
04:18PM 35.4389 -97.0789 182° South 439 505 36,000 -194 Level Fort Worth Center
04:19PM 35.3156 -97.0836 182° South 437 503 35,600 -484 Descending Fort Worth Center
04:20PM 35.1933 -97.0928 184° South 436 502 35,000 -290 Descending Fort Worth Center
04:21PM 35.0686 -97.1006 183° South 440 506 35,000  Level Fort Worth Center
04:22PM 34.9444 -97.1069 182° South 442 509 35,000  Level Fort Worth Center
04:23PM 34.8203 -97.1136 183° South 442 509 35,000  Level Fort Worth Center
04:24PM 34.6956 -97.1203 183° South 444 511 35,000  Level Fort Worth Center
04:25PM 34.5478 -97.1261 182° South 444 511 35,000  Level Fort Worth Center
04:26PM 34.4236 -97.1331 183° South 445 512 35,000  Level Fort Worth Center
04:27PM 34.2981 -97.1406 183° South 450 518 35,000  Level Fort Worth Center
04:28PM 34.1717 -97.1472 182° South 454 522 35,000  Level Fort Worth Center
04:29PM 34.0336 -97.1533 182° South 452 520 35,000 -48 Level Fort Worth Center
04:30PM 33.9075 -97.1600 183° South 452 520 34,900 -48 Descending Fort Worth Center
04:31PM 33.7814 -97.1639 181° South 453 521 34,900 48 Level Fort Worth Center
04:32PM 33.6536 -97.1722 183° South 455 524 35,000 48 Climbing Fort Worth Center
04:33PM 33.5267 -97.1769 182° South 457 526 35,000  Level Fort Worth Center
04:34PM 33.3722 -97.1847 182° South 458 527 35,000  Level Fort Worth Center
04:35PM 33.2447 -97.1908 182° South 459 528 35,000 -97 Level Fort Worth Center
04:36PM 33.1197 -97.1983 183° South 456 525 34,800 -774 Descending Fort Worth Center
04:37PM 32.9936 -97.2050 183° South 457 526 33,400 -1,645 Descending Fort Worth Center
04:38PM 32.8650 -97.2114 182° South 458 527 31,400 -1,161 Descending Fort Worth Center
04:39PM 32.7175 -97.2183 182° South 472 543 31,000 -242 Descending Fort Worth Center
04:40PM 32.5864 -97.2247 182° South 472 543 30,900  Descending Fort Worth Center
04:41PM 32.4567 -97.2306 182° South 469 540 31,000 48 Climbing Fort Worth Center
04:42PM 32.2997 -97.2381 182° South 469 540 31,000 -48 Level Fort Worth Center
04:43PM 32.1689 -97.2442 182° South 469 540 30,900  Descending Fort Worth Center
04:44PM 32.0369 -97.2500 182° South 472 543 31,000 48 Climbing Fort Worth Center
04:45PM 31.8950 -97.2569 182° South 471 542 31,000 -484 Level Fort Worth Center
04:47PM 31.7650 -97.2625 182° South 471 542 30,000 -919 Descending Fort Worth Center
04:48PM 31.6364 -97.2675 182° South 465 535 29,100 -1,210 Descending Fort Worth Center
04:49PM 31.5103 -97.2486 173° South 459 528 27,500 -1,839 Descending Fort Worth Center
04:50PM 31.3883 -97.2328 174° South 443 510 25,300 -2,112 Descending Fort Worth Center
04:51PM 31.2722 -97.2172 173° South 422 486 23,100 -2,323 Descending Fort Worth Center
04:52PM 31.1428 -97.2350 187° South 399 459 20,500 -2,390 Descending Fort Worth Center
04:53PM 31.0425 -97.2744 199° South 386 444 18,200 -2,129 Descending Fort Worth Center
04:54PM 30.9494 -97.3142 200° South 377 434 16,100 -2,098 Descending Fort Worth Center
04:55PM 30.8594 -97.3553 201° Southwest 361 415 13,900 -2,341 Descending Houston Center
04:56PM 30.7606 -97.4200 209° Southwest 343 395 11,300 -1,694 Descending Houston Center
04:57PM 30.6842 -97.4700 209° Southwest 322 371 10,400 -1,065 Descending Houston Center
04:58PM 30.6183 -97.5128 209° Southwest 284 327 9,100 -1,742 Descending Houston Center
04:59PM 30.5550 -97.5544 210° Southwest 267 307 6,800 -2,274 Descending Houston Center
05:00PM 30.4925 -97.5936 208° Southwest 260 299 4,400 -1,839 Descending Houston Center
05:01PM 30.4319 -97.6344 210° Southwest 256 295 3,000 -672 Descending Houston Center
05:02PM 30.3669 -97.6639 201° Southwest 227 261 3,000 -192 Level Houston Center
05:03PM 30.3186 -97.6614 177° South 186 214 2,600 -581 Descending Houston Center
05:04PM 30.2719 -97.6600 179° South 177 204 1,800 -726 Descending Houston Center
05:05PM 30.2344 -97.6583 178° South 155 178 1,100 -435 Descending Houston Center
05:06PM 30.1897 -97.6561 178° South 148 170 900 -194 Descending Houston Center

Login

Don't have an account? Register now (free) for customized features, flight alerts, and more!